Time;durP1;ratioP1;P1;durP2;ratioP2;P2;SDS_P1;SDS_P2;PMS_P1;PMS_P2;Temp;Humidity;BMP_temperature;BMP_pressure;BME280_temperature;BME280_humidity;BME280_pressure;Samples;Min_cycle;Max_cycle;Signal;HPM_P1;HPM_P2
2021/07/27 00:00:21;;;;;;;;;;;24.30;74.30;;;;;;5136576;28;19939;-69
2021/07/27 00:02:54;;;;;;;;;;;24.30;74.20;;;;;;5136618;28;19922;-69
2021/07/27 00:05:26;;;;;;;;;;;24.30;74.20;;;;;;5138089;28;19937;-69
2021/07/27 00:07:59;;;;;;;;;;;24.30;74.20;;;;;;5133279;28;19936;-69
2021/07/27 00:10:31;;;;;;;;;;;24.30;74.20;;;;;;5140407;28;19925;-69
2021/07/27 00:13:03;;;;;;;;;;;24.30;74.20;;;;;;5139475;28;19948;-70
2021/07/27 00:15:36;;;;;;;;;;;24.30;74.20;;;;;;5138834;28;19930;-69
2021/07/27 00:18:08;;;;;;;;;;;24.30;74.20;;;;;;5140974;28;19933;-70
2021/07/27 00:20:40;;;;;;;;;;;24.30;74.20;;;;;;5139879;28;19926;-69
2021/07/27 00:23:12;;;;;;;;;;;24.30;74.20;;;;;;5136952;28;19925;-69
2021/07/27 00:25:45;;;;;;;;;;;24.30;74.10;;;;;;5137268;28;21775;-69
2021/07/27 00:28:17;;;;;;;;;;;24.30;74.10;;;;;;5139149;28;19930;-69
2021/07/27 00:30:49;;;;;;;;;;;24.30;74.10;;;;;;5139100;28;19929;-69
2021/07/27 00:33:21;;;;;;;;;;;24.20;74.00;;;;;;5138410;28;19922;-69
2021/07/27 00:35:54;;;;;;;;;;;24.30;74.10;;;;;;5141697;28;19957;-69
2021/07/27 00:38:26;;;;;;;;;;;24.20;73.90;;;;;;5134568;28;19932;-68
2021/07/27 00:40:58;;;;;;;;;;;24.20;74.00;;;;;;5137206;28;19930;-69
2021/07/27 00:43:30;;;;;;;;;;;24.30;74.10;;;;;;5140039;28;20386;-69
2021/07/27 00:46:02;;;;;;;;;;;24.20;74.00;;;;;;5136576;28;19948;-69
2021/07/27 00:48:35;;;;;;;;;;;24.20;74.10;;;;;;5131022;28;19933;-69
2021/07/27 00:51:07;;;;;;;;;;;24.20;74.10;;;;;;5140131;28;20216;-68
2021/07/27 00:53:39;;;;;;;;;;;24.20;74.00;;;;;;5135315;28;20276;-69
2021/07/27 00:56:12;;;;;;;;;;;24.10;73.90;;;;;;5144436;28;19933;-69
2021/07/27 00:58:44;;;;;;;;;;;24.20;74.00;;;;;;5135322;28;19930;-68
2021/07/27 01:01:16;;;;;;;;;;;24.10;74.00;;;;;;5134916;28;19929;-71
2021/07/27 01:03:48;;;;;;;;;;;24.10;73.90;;;;;;5134845;28;19937;-70
2021/07/27 01:06:20;;;;;;;;;;;24.10;73.90;;;;;;5137932;28;19934;-70
2021/07/27 01:08:53;;;;;;;;;;;24.10;73.90;;;;;;5132519;28;20556;-69
2021/07/27 01:11:25;;;;;;;;;;;24.10;73.80;;;;;;5133306;28;19926;-69
2021/07/27 01:13:57;;;;;;;;;;;24.10;73.80;;;;;;5133997;28;19953;-69
2021/07/27 01:16:34;;;;;;;;;;;24.10;73.80;;;;;;5128303;28;19937;-69
2021/07/27 01:44:01;;;;;;;;;;;24.00;73.60;;;;;;5135568;28;19949;-70
2021/07/27 01:46:36;;;;;;;;;;;24.00;73.60;;;;;;5148052;28;19922;-69
2021/07/27 01:49:08;;;;;;;;;;;24.00;73.70;;;;;;5131861;28;20596;-70
2021/07/27 01:51:45;;;;;;;;;;;24.00;73.70;;;;;;5137034;28;20134;-69
2021/07/27 01:54:18;;;;;;;;;;;24.00;73.70;;;;;;5137055;28;19951;-69
2021/07/27 01:56:50;;;;;;;;;;;24.00;73.80;;;;;;5138609;28;19933;-70
2021/07/27 01:59:22;;;;;;;;;;;24.00;73.70;;;;;;5137000;28;20402;-69
2021/07/27 02:01:56;;;;;;;;;;;24.00;73.60;;;;;;5134658;28;19922;-70
2021/07/27 02:04:28;;;;;;;;;;;24.00;73.60;;;;;;5129785;28;19948;-69
2021/07/27 02:07:00;;;;;;;;;;;24.00;73.50;;;;;;5135870;28;20276;-70
2021/07/27 02:09:36;;;;;;;;;;;24.00;73.50;;;;;;5132103;28;19922;-71
2021/07/27 02:12:15;;;;;;;;;;;24.00;73.50;;;;;;5132551;28;20288;-69
2021/07/27 02:15:07;;;;;;;;;;;23.90;73.50;;;;;;5133305;28;19932;-70
2021/07/27 02:17:39;;;;;;;;;;;23.90;73.30;;;;;;5130512;28;19925;-70
2021/07/27 02:20:11;;;;;;;;;;;23.90;73.40;;;;;;5134140;28;19926;-70
2021/07/27 02:22:44;;;;;;;;;;;24.00;73.40;;;;;;5139963;28;19933;-70
2021/07/27 02:25:16;;;;;;;;;;;23.90;73.40;;;;;;5136784;28;19930;-69
2021/07/27 02:27:48;;;;;;;;;;;23.90;73.30;;;;;;5133396;28;19930;-69
2021/07/27 02:30:20;;;;;;;;;;;23.90;73.30;;;;;;5130122;28;19929;-69
2021/07/27 02:32:53;;;;;;;;;;;23.90;73.30;;;;;;5128832;28;19926;-69
2021/07/27 02:35:29;;;;;;;;;;;23.90;73.30;;;;;;5130375;28;19922;-69
2021/07/27 02:38:01;;;;;;;;;;;23.90;73.20;;;;;;5134502;28;19926;-69
2021/07/27 02:40:35;;;;;;;;;;;23.90;73.20;;;;;;5137644;28;20287;-69
2021/07/27 02:43:07;;;;;;;;;;;23.90;73.20;;;;;;5134212;28;19929;-68
2021/07/27 02:45:40;;;;;;;;;;;23.90;73.20;;;;;;5115532;28;19929;-69
2021/07/27 02:48:12;;;;;;;;;;;23.90;73.30;;;;;;5132429;28;19937;-68
2021/07/27 02:50:44;;;;;;;;;;;23.90;73.30;;;;;;5132585;28;19921;-69
2021/07/27 02:53:17;;;;;;;;;;;23.90;73.40;;;;;;5134208;28;20534;-69
2021/07/27 02:55:49;;;;;;;;;;;23.80;73.20;;;;;;5133087;28;19921;-69
2021/07/27 02:58:21;;;;;;;;;;;23.80;73.20;;;;;;5150486;28;20386;-69
2021/07/27 03:00:53;;;;;;;;;;;23.90;73.30;;;;;;5135699;28;19933;-68
2021/07/27 03:03:26;;;;;;;;;;;23.90;73.20;;;;;;5133558;28;20285;-69
2021/07/27 03:06:01;;;;;;;;;;;23.80;73.20;;;;;;5134096;28;19930;-68
2021/07/27 03:08:48;;;;;;;;;;;23.80;73.30;;;;;;5133741;28;20565;-69
2021/07/27 03:11:20;;;;;;;;;;;23.80;73.20;;;;;;5140081;28;19926;-68
2021/07/27 03:13:52;;;;;;;;;;;23.80;73.00;;;;;;5146379;28;20311;-68
2021/07/27 03:16:25;;;;;;;;;;;23.80;73.00;;;;;;5136962;28;20181;-70
2021/07/27 03:18:57;;;;;;;;;;;23.80;72.90;;;;;;5137183;28;20651;-69
2021/07/27 03:21:30;;;;;;;;;;;23.80;72.90;;;;;;5131975;28;19926;-70
2021/07/27 03:24:02;;;;;;;;;;;23.80;72.90;;;;;;5136183;28;20303;-69
2021/07/27 03:26:34;;;;;;;;;;;23.80;72.90;;;;;;5147111;28;21998;-70
2021/07/27 03:29:06;;;;;;;;;;;23.80;72.90;;;;;;5136200;28;19936;-69
2021/07/27 03:31:39;;;;;;;;;;;23.80;72.90;;;;;;5135087;28;20320;-69
2021/07/27 03:34:14;;;;;;;;;;;23.80;72.70;;;;;;5137728;28;19954;-69
2021/07/27 03:36:47;;;;;;;;;;;23.70;72.80;;;;;;5135139;28;19933;-69
2021/07/27 03:39:19;;;;;;;;;;;23.80;72.80;;;;;;5133420;28;19944;-69
2021/07/27 03:41:51;;;;;;;;;;;23.80;72.90;;;;;;5134991;28;19926;-70
2021/07/27 03:44:23;;;;;;;;;;;23.70;72.90;;;;;;5134416;28;19926;-70
2021/07/27 03:47:05;;;;;;;;;;;23.80;72.90;;;;;;5129881;28;20149;-69
2021/07/27 03:49:38;;;;;;;;;;;23.80;72.90;;;;;;5135308;28;19929;-69
2021/07/27 03:52:10;;;;;;;;;;;23.70;72.70;;;;;;5135742;28;19936;-69
2021/07/27 03:54:42;;;;;;;;;;;23.70;72.70;;;;;;5135487;28;19933;-69
2021/07/27 03:57:14;;;;;;;;;;;23.70;72.70;;;;;;5136749;28;19921;-69
2021/07/27 03:59:47;;;;;;;;;;;23.70;72.70;;;;;;5132727;28;19933;-69
2021/07/27 04:02:19;;;;;;;;;;;23.70;72.60;;;;;;5134258;28;20394;-69
2021/07/27 04:04:51;;;;;;;;;;;23.70;72.70;;;;;;5136194;28;20514;-69
2021/07/27 04:07:23;;;;;;;;;;;23.70;72.70;;;;;;5126969;28;20115;-69
2021/07/27 04:09:57;;;;;;;;;;;23.70;72.60;;;;;;5133863;28;20249;-69
2021/07/27 04:12:30;;;;;;;;;;;23.70;72.70;;;;;;5140607;28;20378;-69
2021/07/27 04:15:02;;;;;;;;;;;23.70;72.70;;;;;;5122739;28;21218;-68
2021/07/27 04:17:35;;;;;;;;;;;23.70;72.70;;;;;;5126156;28;19925;-69
2021/07/27 04:20:08;;;;;;;;;;;23.70;72.80;;;;;;5126409;28;19929;-69
2021/07/27 04:22:40;;;;;;;;;;;23.70;72.80;;;;;;5133178;28;19929;-69
2021/07/27 04:25:12;;;;;;;;;;;23.70;72.80;;;;;;5134910;28;20663;-69
2021/07/27 04:27:44;;;;;;;;;;;23.70;72.80;;;;;;5127628;28;19926;-68
2021/07/27 04:30:17;;;;;;;;;;;23.70;72.80;;;;;;5119027;28;19932;-69
2021/07/27 04:32:49;;;;;;;;;;;23.70;72.90;;;;;;5123671;28;20265;-69
2021/07/27 04:35:21;;;;;;;;;;;23.60;72.90;;;;;;5117409;28;19930;-69
2021/07/27 04:37:56;;;;;;;;;;;23.70;73.00;;;;;;5129780;28;20284;-69
2021/07/27 04:40:28;;;;;;;;;;;23.70;73.10;;;;;;5119768;28;19930;-69
2021/07/27 04:43:00;;;;;;;;;;;23.70;73.20;;;;;;5126394;28;19945;-69
2021/07/27 04:45:32;;;;;;;;;;;23.70;73.20;;;;;;5122192;28;19933;-69
2021/07/27 04:48:05;;;;;;;;;;;23.70;73.30;;;;;;5126779;28;19967;-69
2021/07/27 04:50:37;;;;;;;;;;;23.70;73.30;;;;;;5129711;28;19940;-69
2021/07/27 04:53:10;;;;;;;;;;;23.70;73.30;;;;;;5125937;28;19929;-69
2021/07/27 04:55:42;;;;;;;;;;;23.70;73.40;;;;;;5121820;28;19921;-69
2021/07/27 04:58:14;;;;;;;;;;;23.70;73.40;;;;;;5135359;28;19926;-69
2021/07/27 05:00:46;;;;;;;;;;;23.70;73.50;;;;;;5125129;28;19930;-69
2021/07/27 05:03:18;;;;;;;;;;;23.70;73.50;;;;;;5125862;28;19929;-69
2021/07/27 05:05:51;;;;;;;;;;;23.70;73.50;;;;;;5126527;28;20374;-69
2021/07/27 05:08:23;;;;;;;;;;;23.70;73.70;;;;;;5119707;28;20010;-68
2021/07/27 05:10:55;;;;;;;;;;;23.70;73.80;;;;;;5128171;28;19937;-68
2021/07/27 05:13:28;;;;;;;;;;;23.70;73.80;;;;;;5121971;28;19937;-69
2021/07/27 05:16:02;;;;;;;;;;;23.70;73.90;;;;;;5121498;28;20288;-69
2021/07/27 05:18:34;;;;;;;;;;;23.70;74.00;;;;;;5125565;28;19926;-69
2021/07/27 05:21:06;;;;;;;;;;;23.70;73.90;;;;;;5108670;28;19930;-70
2021/07/27 05:23:38;;;;;;;;;;;23.60;74.00;;;;;;5132897;28;19930;-70
2021/07/27 05:26:10;;;;;;;;;;;23.60;73.60;;;;;;5125220;28;19930;-69
2021/07/27 05:28:43;;;;;;;;;;;23.50;74.50;;;;;;5123891;28;19922;-69
2021/07/27 05:31:15;;;;;;;;;;;23.30;74.70;;;;;;5122666;28;19929;-70
2021/07/27 05:33:47;;;;;;;;;;;23.20;74.90;;;;;;5128678;28;20552;-70
2021/07/27 05:36:19;;;;;;;;;;;23.00;75.90;;;;;;5114310;28;19929;-74
2021/07/27 05:38:51;;;;;;;;;;;22.90;76.60;;;;;;5121268;28;19930;-73
2021/07/27 05:41:23;;;;;;;;;;;22.80;77.00;;;;;;5109281;28;19937;-74
2021/07/27 05:43:56;;;;;;;;;;;22.90;77.40;;;;;;5115317;28;19930;-73
2021/07/27 05:46:28;;;;;;;;;;;23.00;77.10;;;;;;5101614;28;19925;-74
2021/07/27 05:49:01;;;;;;;;;;;23.20;76.60;;;;;;5127848;28;20380;-73
2021/07/27 05:51:33;;;;;;;;;;;23.30;76.10;;;;;;5139674;28;20040;-73
2021/07/27 05:54:05;;;;;;;;;;;23.40;75.80;;;;;;5162772;28;19921;-73
2021/07/27 05:56:37;;;;;;;;;;;23.50;75.40;;;;;;5154842;28;19937;-71
2021/07/27 05:59:10;;;;;;;;;;;23.70;75.30;;;;;;5135078;28;19941;-70
2021/07/27 06:01:42;;;;;;;;;;;23.70;75.00;;;;;;5148136;28;19948;-69
2021/07/27 06:04:15;;;;;;;;;;;23.80;75.60;;;;;;5149268;28;19922;-69
2021/07/27 06:06:47;;;;;;;;;;;23.90;74.70;;;;;;5151246;28;19937;-69
2021/07/27 06:09:20;;;;;;;;;;;24.00;74.50;;;;;;5148658;28;20384;-70
2021/07/27 06:11:53;;;;;;;;;;;24.00;74.40;;;;;;5152518;28;19929;-68
2021/07/27 06:14:25;;;;;;;;;;;24.00;74.20;;;;;;5153188;28;19928;-67
2021/07/27 06:16:57;;;;;;;;;;;24.00;74.20;;;;;;5146694;28;19926;-67
2021/07/27 06:19:29;;;;;;;;;;;24.10;74.40;;;;;;5152759;28;19930;-69
2021/07/27 06:22:02;;;;;;;;;;;24.10;74.50;;;;;;5149052;28;19922;-69
2021/07/27 06:24:34;;;;;;;;;;;24.10;74.50;;;;;;5144770;28;19925;-69
2021/07/27 06:27:06;;;;;;;;;;;24.10;74.60;;;;;;5151522;28;20127;-68
2021/07/27 06:29:38;;;;;;;;;;;24.10;74.50;;;;;;5152635;28;19930;-69
2021/07/27 06:32:10;;;;;;;;;;;24.10;74.40;;;;;;5151342;28;19933;-69
2021/07/27 06:34:44;;;;;;;;;;;24.10;74.30;;;;;;5155446;28;19922;-67
2021/07/27 06:37:16;;;;;;;;;;;24.10;74.40;;;;;;5150341;28;20474;-69
2021/07/27 06:39:48;;;;;;;;;;;24.10;74.40;;;;;;5157480;28;19926;-70
2021/07/27 06:42:20;;;;;;;;;;;24.10;74.30;;;;;;5157454;28;20426;-69
2021/07/27 06:44:53;;;;;;;;;;;24.10;74.30;;;;;;5155184;28;20383;-68
2021/07/27 06:47:25;;;;;;;;;;;24.10;74.30;;;;;;5154770;28;19922;-69
2021/07/27 06:49:57;;;;;;;;;;;24.10;74.30;;;;;;5152878;28;19928;-68
2021/07/27 06:52:29;;;;;;;;;;;24.10;74.20;;;;;;5155388;28;20929;-69
2021/07/27 06:55:02;;;;;;;;;;;24.20;74.30;;;;;;5147154;28;19933;-69
2021/07/27 06:57:34;;;;;;;;;;;24.20;74.30;;;;;;5151547;28;19929;-69
2021/07/27 07:00:07;;;;;;;;;;;24.20;74.30;;;;;;5149909;28;19929;-68
2021/07/27 07:02:39;;;;;;;;;;;24.20;74.20;;;;;;5153822;28;19925;-69
2021/07/27 07:05:12;;;;;;;;;;;24.10;74.20;;;;;;5153564;28;19929;-68
2021/07/27 07:07:44;;;;;;;;;;;24.20;74.20;;;;;;5152281;28;19929;-68
2021/07/27 07:10:16;;;;;;;;;;;24.20;74.30;;;;;;5150294;28;21223;-68
2021/07/27 07:12:49;;;;;;;;;;;24.20;74.20;;;;;;5149249;28;19929;-69
2021/07/27 07:15:21;;;;;;;;;;;24.20;74.20;;;;;;5149617;28;19926;-68
2021/07/27 07:17:53;;;;;;;;;;;24.20;74.20;;;;;;5149470;28;20422;-69
2021/07/27 07:20:27;;;;;;;;;;;24.20;74.20;;;;;;5144354;28;20275;-68
2021/07/27 07:22:59;;;;;;;;;;;24.20;74.20;;;;;;5142041;28;19922;-69
2021/07/27 07:25:31;;;;;;;;;;;24.20;74.20;;;;;;5141377;28;19937;-69
2021/07/27 07:28:03;;;;;;;;;;;24.20;74.20;;;;;;5145643;28;19926;-69
2021/07/27 07:30:36;;;;;;;;;;;24.30;74.30;;;;;;5142345;28;19926;-69
2021/07/27 07:33:08;;;;;;;;;;;24.20;74.20;;;;;;5138363;28;20287;-69
2021/07/27 07:35:41;;;;;;;;;;;24.30;74.30;;;;;;5136138;28;19976;-68
2021/07/27 07:38:13;;;;;;;;;;;24.30;74.30;;;;;;5140801;28;19929;-69
2021/07/27 07:40:45;;;;;;;;;;;24.30;74.30;;;;;;5133243;28;20074;-72
2021/07/27 07:43:17;;;;;;;;;;;24.30;74.30;;;;;;5134689;28;19921;-69
2021/07/27 07:45:49;;;;;;;;;;;24.30;74.20;;;;;;5139757;28;19937;-69
2021/07/27 07:48:22;;;;;;;;;;;24.30;74.20;;;;;;5140182;28;20414;-68
2021/07/27 07:50:54;;;;;;;;;;;24.30;74.20;;;;;;5144931;28;19932;-69
2021/07/27 07:53:26;;;;;;;;;;;24.30;74.20;;;;;;5138923;28;20399;-69
2021/07/27 07:55:59;;;;;;;;;;;24.30;74.20;;;;;;5152804;28;20571;-69
2021/07/27 07:58:31;;;;;;;;;;;24.30;74.20;;;;;;5142038;28;20414;-69
2021/07/27 08:01:07;;;;;;;;;;;24.30;74.20;;;;;;5131082;28;19929;-69
2021/07/27 08:03:40;;;;;;;;;;;24.30;74.20;;;;;;5135542;28;19996;-69
2021/07/27 08:06:12;;;;;;;;;;;24.30;74.20;;;;;;5136475;28;19934;-68
2021/07/27 08:08:44;;;;;;;;;;;24.30;74.20;;;;;;5135976;28;19942;-69
2021/07/27 08:11:16;;;;;;;;;;;24.30;74.20;;;;;;5135709;28;19922;-68
2021/07/27 08:13:52;;;;;;;;;;;24.30;74.20;;;;;;5136739;28;19926;-69
2021/07/27 08:16:24;;;;;;;;;;;24.30;74.20;;;;;;5127163;28;19930;-70
2021/07/27 08:18:57;;;;;;;;;;;24.30;74.20;;;;;;5131269;28;19922;-68
2021/07/27 08:21:29;;;;;;;;;;;24.30;74.20;;;;;;5125134;28;19930;-69
2021/07/27 08:24:01;;;;;;;;;;;24.30;74.10;;;;;;5127251;28;19933;-68
2021/07/27 08:26:33;;;;;;;;;;;24.30;74.10;;;;;;5122522;28;19930;-67
2021/07/27 08:29:05;;;;;;;;;;;24.40;74.20;;;;;;5143682;28;20418;-69
2021/07/27 08:31:38;;;;;;;;;;;24.40;74.20;;;;;;5132515;28;19922;-67
2021/07/27 08:34:16;;;;;;;;;;;24.40;74.30;;;;;;5136574;28;19926;-69
2021/07/27 08:36:49;;;;;;;;;;;24.40;74.20;;;;;;5131569;28;22756;-68
2021/07/27 08:39:21;;;;;;;;;;;24.40;74.30;;;;;;5130084;28;20315;-69
2021/07/27 08:41:54;;;;;;;;;;;24.40;74.20;;;;;;5130049;28;20337;-68
2021/07/27 08:44:28;;;;;;;;;;;24.40;74.20;;;;;;5125774;28;20310;-67
2021/07/27 08:47:04;;;;;;;;;;;24.40;74.30;;;;;;5127354;28;20059;-68
2021/07/27 08:49:36;;;;;;;;;;;24.40;74.30;;;;;;5129282;28;19929;-68
2021/07/27 08:52:09;;;;;;;;;;;24.40;74.20;;;;;;5142836;28;19922;-68
2021/07/27 08:54:43;;;;;;;;;;;24.40;74.20;;;;;;5132900;28;20307;-68
2021/07/27 08:57:15;;;;;;;;;;;24.40;74.20;;;;;;5123467;28;20400;-68
2021/07/27 08:59:48;;;;;;;;;;;24.40;74.20;;;;;;5133847;28;19937;-68
2021/07/27 09:02:27;;;;;;;;;;;24.40;74.20;;;;;;5140541;28;19941;-68
2021/07/27 09:05:09;;;;;;;;;;;24.40;74.20;;;;;;5143393;28;19921;-69
2021/07/27 09:07:41;;;;;;;;;;;24.50;74.20;;;;;;5139765;28;21221;-69
2021/07/27 09:10:21;;;;;;;;;;;24.50;74.20;;;;;;5136358;28;19929;-68
2021/07/27 09:12:58;;;;;;;;;;;24.40;74.10;;;;;;5136346;28;19937;-69
2021/07/27 09:15:31;;;;;;;;;;;24.50;74.00;;;;;;5138580;28;19921;-68
2021/07/27 09:18:04;;;;;;;;;;;24.50;74.00;;;;;;5144608;28;20400;-69
2021/07/27 09:20:41;;;;;;;;;;;24.50;73.90;;;;;;5138934;28;20493;-68
2021/07/27 09:23:14;;;;;;;;;;;24.50;73.90;;;;;;5130663;28;20410;-68
2021/07/27 09:25:50;;;;;;;;;;;24.50;73.80;;;;;;5135728;28;20483;-68
2021/07/27 09:28:24;;;;;;;;;;;24.50;73.80;;;;;;5136095;28;19948;-69
2021/07/27 09:30:59;;;;;;;;;;;24.50;73.80;;;;;;5141265;28;19929;-68
2021/07/27 09:33:32;;;;;;;;;;;24.50;73.70;;;;;;5152246;28;19921;-68
2021/07/27 09:36:05;;;;;;;;;;;24.50;73.60;;;;;;5139932;28;19921;-69
2021/07/27 09:38:37;;;;;;;;;;;24.50;73.50;;;;;;5138420;28;19945;-68
2021/07/27 09:41:09;;;;;;;;;;;24.50;73.50;;;;;;5139901;28;19925;-69
2021/07/27 09:43:49;;;;;;;;;;;24.50;73.40;;;;;;5136301;28;19929;-68
2021/07/27 09:46:22;;;;;;;;;;;24.50;73.40;;;;;;5136336;28;20177;-69
2021/07/27 09:48:54;;;;;;;;;;;24.50;73.30;;;;;;5154538;28;19932;-67
2021/07/27 09:51:28;;;;;;;;;;;24.50;73.30;;;;;;5136019;28;19929;-67
2021/07/27 09:54:00;;;;;;;;;;;24.60;73.20;;;;;;5130221;28;19925;-69
2021/07/27 09:56:33;;;;;;;;;;;24.60;73.20;;;;;;5133410;28;20303;-68
2021/07/27 09:59:07;;;;;;;;;;;24.60;73.20;;;;;;5139819;28;19922;-68
2021/07/27 10:01:42;;;;;;;;;;;24.60;73.10;;;;;;5135429;28;19929;-68
2021/07/27 10:04:20;;;;;;;;;;;24.60;73.10;;;;;;5133780;28;19922;-69
2021/07/27 10:06:52;;;;;;;;;;;24.60;73.00;;;;;;5129877;28;19926;-68
2021/07/27 10:09:31;;;;;;;;;;;24.60;72.90;;;;;;5126402;28;19926;-68
2021/07/27 10:12:06;;;;;;;;;;;24.60;72.90;;;;;;5131576;28;20303;-68
2021/07/27 10:14:40;;;;;;;;;;;24.60;72.80;;;;;;5129069;28;19930;-68
2021/07/27 10:17:12;;;;;;;;;;;24.60;72.80;;;;;;5127135;28;19926;-66
2021/07/27 10:19:46;;;;;;;;;;;24.60;72.70;;;;;;5130560;28;19922;-67
2021/07/27 10:22:19;;;;;;;;;;;24.70;72.80;;;;;;5132765;28;19929;-67
2021/07/27 10:24:51;;;;;;;;;;;24.70;72.70;;;;;;5134722;28;19933;-68
2021/07/27 10:27:29;;;;;;;;;;;24.70;72.70;;;;;;5134128;28;19930;-67
2021/07/27 10:30:09;;;;;;;;;;;24.70;72.70;;;;;;5139830;28;20385;-68
2021/07/27 10:32:52;;;;;;;;;;;24.70;72.70;;;;;;5140916;28;20476;-67
2021/07/27 10:35:26;;;;;;;;;;;24.70;72.70;;;;;;5134532;28;20296;-68
2021/07/27 10:38:12;;;;;;;;;;;24.70;72.70;;;;;;5134328;28;19922;-68
2021/07/27 10:40:44;;;;;;;;;;;24.70;72.70;;;;;;5134022;28;20347;-67
2021/07/27 10:43:26;;;;;;;;;;;24.70;72.80;;;;;;5137890;28;19945;-67
2021/07/27 10:46:01;;;;;;;;;;;24.70;72.70;;;;;;5132064;28;20388;-67
2021/07/27 10:48:40;;;;;;;;;;;24.70;72.70;;;;;;5137459;28;19929;-68
2021/07/27 10:51:12;;;;;;;;;;;24.70;72.70;;;;;;5135495;28;19921;-67
2021/07/27 10:53:50;;;;;;;;;;;24.70;72.70;;;;;;5137391;28;19926;-67
2021/07/27 10:56:27;;;;;;;;;;;24.70;72.80;;;;;;5134198;28;19948;-67
2021/07/27 10:59:00;;;;;;;;;;;24.70;72.80;;;;;;5141901;28;19929;-67
2021/07/27 11:01:32;;;;;;;;;;;24.70;72.80;;;;;;5142776;28;20620;-67
2021/07/27 11:04:08;;;;;;;;;;;24.70;72.80;;;;;;5134988;28;19941;-66
2021/07/27 11:06:40;;;;;;;;;;;24.70;72.80;;;;;;5133502;28;19933;-68
2021/07/27 11:09:13;;;;;;;;;;;24.70;72.80;;;;;;5136378;28;19929;-67
2021/07/27 11:11:46;;;;;;;;;;;24.70;72.80;;;;;;5141268;28;19922;-67
2021/07/27 11:14:22;;;;;;;;;;;24.70;72.80;;;;;;5135545;28;20406;-67
2021/07/27 11:16:55;;;;;;;;;;;24.70;72.80;;;;;;5143592;28;19925;-66
2021/07/27 11:19:28;;;;;;;;;;;24.70;72.80;;;;;;5134353;28;19929;-66
2021/07/27 11:22:00;;;;;;;;;;;24.70;72.80;;;;;;5130156;28;20368;-67
2021/07/27 11:24:32;;;;;;;;;;;24.70;72.80;;;;;;5138016;28;19929;-68
2021/07/27 11:27:11;;;;;;;;;;;24.70;72.80;;;;;;5136961;28;20816;-67
2021/07/27 11:29:54;;;;;;;;;;;24.70;72.80;;;;;;5125053;28;19937;-67
2021/07/27 11:32:44;;;;;;;;;;;24.70;72.90;;;;;;5140842;28;19929;-67
2021/07/27 11:35:17;;;;;;;;;;;24.70;72.90;;;;;;5134694;28;19952;-67
2021/07/27 11:38:03;;;;;;;;;;;24.70;72.90;;;;;;5133604;28;19930;-67
2021/07/27 11:40:38;;;;;;;;;;;24.70;72.90;;;;;;5132877;28;19933;-67
2021/07/27 11:43:10;;;;;;;;;;;24.70;73.00;;;;;;5145388;28;19944;-67
2021/07/27 11:45:44;;;;;;;;;;;24.70;73.00;;;;;;5132404;28;19921;-67
2021/07/27 11:48:16;;;;;;;;;;;24.70;73.10;;;;;;5125050;28;21409;-67
2021/07/27 11:50:56;;;;;;;;;;;24.70;73.10;;;;;;5130663;28;19929;-66
2021/07/27 11:53:31;;;;;;;;;;;24.70;73.20;;;;;;5123111;28;19930;-67
2021/07/27 11:56:10;;;;;;;;;;;24.70;73.20;;;;;;5131621;28;19929;-67
2021/07/27 11:58:42;;;;;;;;;;;24.70;73.30;;;;;;5146456;28;19929;-68
2021/07/27 12:01:15;;;;;;;;;;;24.70;73.30;;;;;;5150655;22;19933;-60
2021/07/27 12:03:47;;;;;;;;;;;24.70;73.30;;;;;;5144961;28;19929;-63
2021/07/27 12:06:20;;;;;;;;;;;24.70;73.60;;;;;;5137818;28;20350;-66
2021/07/27 12:08:52;;;;;;;;;;;24.70;73.60;;;;;;5143124;28;20259;-63
2021/07/27 12:11:24;;;;;;;;;;;24.70;73.40;;;;;;5144206;28;19929;-65
2021/07/27 12:13:57;;;;;;;;;;;24.80;73.30;;;;;;5148510;28;19930;-64
2021/07/27 12:16:29;;;;;;;;;;;24.90;73.20;;;;;;5149712;28;20512;-66
2021/07/27 12:19:02;;;;;;;;;;;24.90;73.10;;;;;;5137511;28;19926;-65
2021/07/27 12:21:35;;;;;;;;;;;25.00;72.90;;;;;;5146992;28;19951;-66
2021/07/27 12:24:07;;;;;;;;;;;25.00;72.80;;;;;;5145822;28;19951;-64
2021/07/27 12:26:42;;;;;;;;;;;25.10;72.70;;;;;;5138780;28;19948;-65
2021/07/27 12:29:14;;;;;;;;;;;25.10;72.60;;;;;;5136511;28;19926;-63
2021/07/27 12:31:46;;;;;;;;;;;25.10;72.40;;;;;;5127944;28;19933;-65
2021/07/27 12:34:19;;;;;;;;;;;25.20;72.40;;;;;;5136115;28;20422;-64
2021/07/27 12:36:52;;;;;;;;;;;25.20;72.20;;;;;;5136713;28;19930;-63
2021/07/27 12:39:25;;;;;;;;;;;25.30;72.30;;;;;;5127563;28;19936;-65
2021/07/27 12:41:57;;;;;;;;;;;25.30;72.20;;;;;;5124301;28;19929;-64
2021/07/27 12:44:32;;;;;;;;;;;25.40;72.20;;;;;;5131848;28;20414;-64
2021/07/27 12:47:04;;;;;;;;;;;25.40;72.00;;;;;;5112073;28;19930;-65
2021/07/27 12:49:36;;;;;;;;;;;25.50;71.90;;;;;;5121203;28;21151;-63
2021/07/27 12:52:11;;;;;;;;;;;25.60;71.80;;;;;;5118061;28;19937;-64
2021/07/27 12:54:43;;;;;;;;;;;25.60;71.70;;;;;;5130533;28;20454;-67
2021/07/27 12:57:15;;;;;;;;;;;25.70;71.50;;;;;;5128575;28;19977;-65
2021/07/27 12:59:48;;;;;;;;;;;25.70;71.40;;;;;;5117983;28;19941;-64
2021/07/27 13:02:24;;;;;;;;;;;25.80;71.30;;;;;;5125778;28;19925;-66
2021/07/27 13:04:56;;;;;;;;;;;25.90;71.30;;;;;;5110221;28;19932;-64
2021/07/27 13:07:29;;;;;;;;;;;25.90;71.40;;;;;;5128588;28;19933;-64
2021/07/27 13:10:02;;;;;;;;;;;26.00;71.10;;;;;;5126334;28;19926;-64
2021/07/27 13:12:35;;;;;;;;;;;26.10;71.00;;;;;;5127995;28;20378;-65
2021/07/27 13:15:07;;;;;;;;;;;26.10;70.90;;;;;;5135342;28;19925;-65
2021/07/27 13:17:40;;;;;;;;;;;26.20;70.90;;;;;;5127432;28;19933;-65
2021/07/27 13:20:12;;;;;;;;;;;26.20;70.80;;;;;;5119917;28;20403;-64
2021/07/27 13:22:45;;;;;;;;;;;26.30;70.70;;;;;;5128745;28;20471;-67
2021/07/27 13:25:17;;;;;;;;;;;26.30;70.60;;;;;;5119227;28;19925;-66
2021/07/27 13:27:49;;;;;;;;;;;26.40;70.60;;;;;;5122087;28;19925;-65
2021/07/27 13:30:23;;;;;;;;;;;26.40;70.50;;;;;;5109262;28;20390;-67
2021/07/27 13:32:55;;;;;;;;;;;26.40;70.40;;;;;;5120354;28;19925;-65
2021/07/27 13:35:28;;;;;;;;;;;26.50;70.50;;;;;;5118611;28;20385;-64
2021/07/27 13:38:01;;;;;;;;;;;26.50;70.40;;;;;;5118538;28;19925;-65
2021/07/27 13:40:33;;;;;;;;;;;26.50;70.30;;;;;;5112395;28;19929;-67
2021/07/27 13:43:05;;;;;;;;;;;26.60;70.30;;;;;;5124512;28;19933;-65
2021/07/27 13:45:37;;;;;;;;;;;26.60;70.60;;;;;;5123622;28;19925;-68
2021/07/27 13:48:10;;;;;;;;;;;26.60;69.70;;;;;;5110491;28;19925;-66
2021/07/27 13:50:42;;;;;;;;;;;26.60;69.70;;;;;;5132689;28;20270;-66
2021/07/27 13:53:15;;;;;;;;;;;26.60;69.70;;;;;;5132197;28;19944;-67
2021/07/27 13:55:48;;;;;;;;;;;26.60;69.70;;;;;;5117228;28;19972;-67
2021/07/27 13:58:20;;;;;;;;;;;26.60;69.80;;;;;;5141413;28;19925;-67
2021/07/27 14:00:52;;;;;;;;;;;26.60;69.80;;;;;;5145096;28;19933;-68
2021/07/27 14:03:25;;;;;;;;;;;26.60;69.80;;;;;;5134598;28;19926;-62
2021/07/27 14:05:57;;;;;;;;;;;26.60;69.80;;;;;;5126096;28;20466;-67
2021/07/27 14:08:30;;;;;;;;;;;26.60;69.80;;;;;;5131339;28;20386;-64
2021/07/27 14:11:02;;;;;;;;;;;26.60;69.70;;;;;;5133616;28;20476;-63
2021/07/27 14:13:35;;;;;;;;;;;26.70;69.70;;;;;;5122887;28;20401;-65
2021/07/27 14:16:08;;;;;;;;;;;26.70;69.60;;;;;;5131698;28;19930;-63
2021/07/27 14:18:40;;;;;;;;;;;26.70;69.20;;;;;;5127281;28;19932;-63
2021/07/27 14:21:12;;;;;;;;;;;26.70;69.00;;;;;;5131767;28;19936;-66
2021/07/27 14:23:45;;;;;;;;;;;26.80;69.00;;;;;;5141915;28;19926;-62
2021/07/27 14:26:17;;;;;;;;;;;26.80;68.80;;;;;;5129194;28;19925;-66
2021/07/27 14:28:49;;;;;;;;;;;26.80;68.90;;;;;;5132683;28;21077;-65
2021/07/27 14:31:21;;;;;;;;;;;26.80;68.80;;;;;;5131266;28;19929;-66
2021/07/27 14:33:56;;;;;;;;;;;26.90;68.80;;;;;;5120524;28;19929;-71
2021/07/27 14:36:28;;;;;;;;;;;26.90;68.50;;;;;;5131398;28;20466;-66
2021/07/27 14:39:00;;;;;;;;;;;26.90;68.40;;;;;;5124654;28;19925;-66
2021/07/27 14:41:33;;;;;;;;;;;26.90;68.20;;;;;;5132691;28;19929;-67
2021/07/27 14:44:05;;;;;;;;;;;26.90;67.90;;;;;;5115775;28;19933;-63
2021/07/27 14:46:38;;;;;;;;;;;26.90;67.80;;;;;;5125532;28;19925;-64
2021/07/27 14:49:10;;;;;;;;;;;26.90;67.90;;;;;;5109344;28;19937;-68
2021/07/27 14:51:42;;;;;;;;;;;26.90;68.10;;;;;;5128315;28;21353;-66
2021/07/27 14:54:15;;;;;;;;;;;26.90;68.20;;;;;;5121394;28;19936;-64
2021/07/27 14:56:47;;;;;;;;;;;26.90;68.20;;;;;;5127380;28;19930;-66
2021/07/27 14:59:20;;;;;;;;;;;26.90;68.10;;;;;;5116592;28;19929;-68
2021/07/27 15:01:52;;;;;;;;;;;26.90;67.90;;;;;;5124855;28;19925;-66
2021/07/27 15:04:25;;;;;;;;;;;26.90;67.70;;;;;;5101262;28;20306;-68
2021/07/27 15:06:57;;;;;;;;;;;26.90;67.20;;;;;;5126757;28;19929;-70
2021/07/27 15:09:30;;;;;;;;;;;26.90;67.00;;;;;;5123948;28;19936;-66
2021/07/27 15:12:02;;;;;;;;;;;26.90;67.30;;;;;;5122970;28;19956;-68
2021/07/27 15:14:34;;;;;;;;;;;26.90;67.40;;;;;;5118707;28;19929;-70